Time;durP1;ratioP1;P1;durP2;ratioP2;P2;SDS_P1;SDS_P2;PMS_P1;PMS_P2;Temp;Humidity;BMP_temperature;BMP_pressure;BME280_temperature;BME280_humidity;BME280_pressure;Samples;Min_cycle;Max_cycle;Signal;HPM_P1;HPM_P2
2021/08/13 00:00:54;;;;;;;;;;;;;;;-142.75;72.89;76893.13;5084472;28;20358;-78
2021/08/13 00:03:20;;;;;;;;;;;;;;;-142.75;72.39;76889.19;5081972;28;20401;-77
2021/08/13 00:05:45;;;;;;;;;;;;;;;-142.75;71.90;76879.34;5072234;28;19979;-76
2021/08/13 00:08:10;;;;;;;;;;;;;;;-142.75;71.63;76877.38;5085043;28;19999;-78
2021/08/13 00:10:36;;;;;;;;;;;;;;;-142.75;71.39;76887.22;5079526;28;19916;-77
2021/08/13 00:13:01;;;;;;;;;;;;;;;-142.75;71.47;76887.22;5079081;28;19917;-78
2021/08/13 00:15:26;;;;;;;;;;;;;;;-142.75;71.71;76922.66;5081900;28;19967;-78
2021/08/13 00:17:53;;;;;;;;;;;;;;;-142.75;71.56;76904.94;5073758;28;20279;-77
2021/08/13 00:20:20;;;;;;;;;;;;;;;-142.75;71.59;76940.38;5077367;28;20057;-77
2021/08/13 00:22:45;;;;;;;;;;;;;;;-142.75;72.06;76932.50;5079451;28;19928;-75
2021/08/13 00:25:10;;;;;;;;;;;;;;;-142.75;72.21;76934.47;5082200;28;19916;-77
2021/08/13 00:27:36;;;;;;;;;;;;;;;-142.75;72.05;76936.44;5087946;28;19917;-78
2021/08/13 00:30:02;;;;;;;;;;;;;;;-142.75;71.58;76952.19;5085096;28;20002;-78
2021/08/13 00:32:27;;;;;;;;;;;;;;;-142.75;71.42;76952.19;5082410;28;19979;-78
2021/08/13 00:34:52;;;;;;;;;;;;;;;-142.75;71.85;76924.63;5079023;28;20473;-77
2021/08/13 00:37:17;;;;;;;;;;;;;;;-142.75;72.42;76940.38;5081371;28;20381;-78
2021/08/13 00:39:43;;;;;;;;;;;;;;;-142.75;72.54;76928.56;5091366;28;19923;-78
2021/08/13 00:42:08;;;;;;;;;;;;;;;-142.75;72.10;76904.94;5086219;28;19916;-79
2021/08/13 00:44:33;;;;;;;;;;;;;;;-142.75;71.24;76912.81;5084951;28;20053;-77
2021/08/13 00:46:59;;;;;;;;;;;;;;;-142.75;71.15;76901.00;5083862;28;19955;-78
2021/08/13 00:49:24;;;;;;;;;;;;;;;-142.75;70.79;76916.75;5081916;28;19924;-78
2021/08/13 00:51:49;;;;;;;;;;;;;;;-142.75;70.70;76908.88;5083707;28;20309;-77
2021/08/13 00:54:14;;;;;;;;;;;;;;;-142.75;70.42;76916.75;5088495;28;19916;-78
2021/08/13 00:56:39;;;;;;;;;;;;;;;-142.75;70.45;76932.50;5085445;28;19923;-79
2021/08/13 00:59:07;;;;;;;;;;;;;;;-142.75;71.65;76936.44;5078998;28;19917;-78
2021/08/13 01:01:32;;;;;;;;;;;;;;;-142.75;72.61;76948.25;5082850;28;19916;-76
2021/08/13 01:03:57;;;;;;;;;;;;;;;-142.75;73.15;76944.31;5083303;28;19931;-78
2021/08/13 01:06:22;;;;;;;;;;;;;;;-142.75;72.94;76936.44;5088265;28;19916;-78
2021/08/13 01:08:47;;;;;;;;;;;;;;;-142.75;72.89;76940.38;5083327;28;19920;-77
2021/08/13 01:11:31;;;;;;;;;;;;;;;-142.75;72.54;76920.69;5080647;28;19916;-78
2021/08/13 01:14:05;;;;;;;;;;;;;;;-142.75;71.71;76918.72;5078731;28;19998;-78
2021/08/13 01:16:31;;;;;;;;;;;;;;;-142.75;71.01;76928.56;5082134;28;19923;-79
2021/08/13 01:19:12;;;;;;;;;;;;;;;-142.75;70.64;76930.53;5081127;28;19916;-78
2021/08/13 01:21:44;;;;;;;;;;;;;;;-142.75;70.58;76924.63;5080254;28;19942;-78
2021/08/13 01:24:12;;;;;;;;;;;;;;;-142.75;70.58;76924.63;5085117;28;19920;-78
2021/08/13 01:26:41;;;;;;;;;;;;;;;-142.75;70.15;76932.50;5084322;28;19922;-78
2021/08/13 01:29:16;;;;;;;;;;;;;;;-142.75;71.49;76954.16;5076445;28;19923;-78
2021/08/13 01:32:00;;;;;;;;;;;;;;;-142.75;71.88;76971.88;5083862;28;20497;-78
2021/08/13 01:34:25;;;;;;;;;;;;;;;-142.75;72.37;77007.31;5079667;28;19916;-78
2021/08/13 01:36:51;;;;;;;;;;;;;;;-142.75;72.67;76993.53;5079653;28;19916;-78
2021/08/13 01:39:17;;;;;;;;;;;;;;;-142.75;73.01;76991.56;5080779;28;19917;-78
2021/08/13 01:41:43;;;;;;;;;;;;;;;-142.75;73.01;76987.63;5079045;28;19922;-78
2021/08/13 01:44:10;;;;;;;;;;;;;;;-142.75;72.94;76975.81;5080316;28;20360;-78
2021/08/13 01:46:36;;;;;;;;;;;;;;;-142.75;72.76;76960.06;5081866;28;20003;-77
2021/08/13 01:49:02;;;;;;;;;;;;;;;-142.75;72.51;76962.03;5085479;28;20408;-78
2021/08/13 01:51:27;;;;;;;;;;;;;;;-142.75;71.90;76958.09;5086898;28;19920;-78
2021/08/13 01:53:54;;;;;;;;;;;;;;;-142.75;71.59;76954.16;5084005;28;19951;-78
2021/08/13 01:56:19;;;;;;;;;;;;;;;-142.75;71.23;76958.09;5078334;28;19920;-79
2021/08/13 01:58:45;;;;;;;;;;;;;;;-142.75;71.04;76964.00;5083048;28;19916;-77
2021/08/13 02:01:10;;;;;;;;;;;;;;;-142.75;70.92;76964.00;5083831;28;19916;-79
2021/08/13 02:03:37;;;;;;;;;;;;;;;-142.75;71.15;76971.88;5081067;28;20008;-80
2021/08/13 02:06:02;;;;;;;;;;;;;;;-142.75;71.10;76973.84;5090502;28;20390;-76
2021/08/13 02:08:28;;;;;;;;;;;;;;;-142.75;71.01;76975.81;5091709;28;19924;-78
2021/08/13 02:10:53;;;;;;;;;;;;;;;-142.75;70.92;76983.69;5090571;28;19916;-79
2021/08/13 02:13:19;;;;;;;;;;;;;;;-142.75;70.73;76981.72;5075901;28;19922;-78
2021/08/13 02:15:48;;;;;;;;;;;;;;;-142.75;70.55;76987.63;5086763;28;19924;-77
2021/08/13 02:18:20;;;;;;;;;;;;;;;-142.75;70.38;76987.63;5078019;28;19945;-80
2021/08/13 02:20:47;;;;;;;;;;;;;;;-142.75;70.55;76975.81;5084747;28;20382;-78
2021/08/13 02:23:12;;;;;;;;;;;;;;;-142.75;71.22;76979.75;5079421;28;19920;-77
2021/08/13 02:25:37;;;;;;;;;;;;;;;-142.75;71.66;76983.69;5078899;28;20323;-78
2021/08/13 02:28:03;;;;;;;;;;;;;;;-142.75;71.63;76983.69;5077117;28;19924;-77
2021/08/13 02:30:29;;;;;;;;;;;;;;;-142.75;71.59;76981.72;5085361;28;19916;-78
2021/08/13 02:32:54;;;;;;;;;;;;;;;-142.75;71.46;76979.75;5082229;28;19969;-80
2021/08/13 02:35:19;;;;;;;;;;;;;;;-142.75;71.35;76979.75;5085092;28;19923;-78
2021/08/13 02:37:55;;;;;;;;;;;;;;;-142.75;71.17;76985.66;5077427;28;19917;-77
2021/08/13 02:40:28;;;;;;;;;;;;;;;-142.75;71.04;76975.81;5079163;28;19969;-78
2021/08/13 02:42:56;;;;;;;;;;;;;;;-142.75;70.91;76985.66;5078329;28;19920;-78
2021/08/13 02:45:23;;;;;;;;;;;;;;;-142.75;71.04;76979.75;5080410;28;19916;-77
2021/08/13 02:47:49;;;;;;;;;;;;;;;-142.75;70.82;76971.88;5083002;28;19920;-78
2021/08/13 02:50:15;;;;;;;;;;;;;;;-142.75;70.63;76983.69;5079561;28;20365;-78
2021/08/13 02:52:50;;;;;;;;;;;;;;;-142.75;70.50;76979.75;5080171;28;19916;-78
2021/08/13 02:55:17;;;;;;;;;;;;;;;-142.75;70.24;76973.84;5077392;28;19916;-79
2021/08/13 02:57:43;;;;;;;;;;;;;;;-142.75;69.99;76971.88;5088101;28;19920;-78
2021/08/13 03:00:09;;;;;;;;;;;;;;;-142.75;69.92;76979.75;5081375;28;19999;-80
2021/08/13 03:02:35;;;;;;;;;;;;;;;-142.75;69.93;76971.88;5086481;28;20031;-79
2021/08/13 03:05:01;;;;;;;;;;;;;;;-142.75;70.08;76977.78;5085998;28;19923;-78
2021/08/13 03:07:27;;;;;;;;;;;;;;;-142.75;69.85;76983.69;5075509;28;19917;-79
2021/08/13 03:09:53;;;;;;;;;;;;;;;-142.75;70.09;76983.69;5072141;28;19924;-79
2021/08/13 03:12:18;;;;;;;;;;;;;;;-142.75;70.27;76991.56;5083888;28;19916;-78
2021/08/13 03:14:44;;;;;;;;;;;;;;;-142.75;70.34;76989.59;5082130;28;19923;-77
2021/08/13 03:17:09;;;;;;;;;;;;;;;-142.75;70.60;76991.56;5083508;28;19938;-77
2021/08/13 03:19:34;;;;;;;;;;;;;;;-142.75;70.68;76999.44;5078243;28;20015;-78
2021/08/13 03:22:00;;;;;;;;;;;;;;;-142.75;70.63;77005.34;5087100;28;20016;-78
2021/08/13 03:24:25;;;;;;;;;;;;;;;-142.75;70.62;77007.31;5080539;28;19920;-77
2021/08/13 03:26:51;;;;;;;;;;;;;;;-142.75;70.36;77007.31;5078635;28;19916;-77
2021/08/13 03:29:16;;;;;;;;;;;;;;;-142.75;70.27;77019.13;5080920;28;20461;-79
2021/08/13 03:31:43;;;;;;;;;;;;;;;-142.75;70.49;77025.03;5074001;28;19916;-78
2021/08/13 03:34:08;;;;;;;;;;;;;;;-142.75;70.46;77027.00;5083552;28;19928;-77
2021/08/13 03:36:34;;;;;;;;;;;;;;;-142.75;70.47;77015.19;5073198;28;19962;-77
2021/08/13 03:38:59;;;;;;;;;;;;;;;-142.75;70.73;77030.94;5078925;28;19923;-77
2021/08/13 03:41:24;;;;;;;;;;;;;;;-142.75;70.45;77023.06;5078920;28;19951;-78
2021/08/13 03:43:50;;;;;;;;;;;;;;;-142.75;70.63;77027.00;5080278;28;20003;-76
2021/08/13 03:46:15;;;;;;;;;;;;;;;-142.75;70.64;77034.88;5071133;28;19923;-79
2021/08/13 03:48:42;;;;;;;;;;;;;;;-142.75;70.70;77034.88;5077270;28;21274;-79
2021/08/13 03:51:07;;;;;;;;;;;;;;;-142.75;71.17;77011.25;5075923;28;20353;-78
2021/08/13 03:53:32;;;;;;;;;;;;;;;-142.75;71.59;77011.25;5082622;28;19916;-79
2021/08/13 03:55:58;;;;;;;;;;;;;;;-142.75;71.79;76999.44;5078377;28;19916;-80
2021/08/13 03:58:23;;;;;;;;;;;;;;;-142.75;71.53;76991.56;5077921;28;19920;-78
2021/08/13 04:00:48;;;;;;;;;;;;;;;-142.75;71.42;76995.50;5082945;28;19985;-80
2021/08/13 04:03:13;;;;;;;;;;;;;;;-142.75;71.54;76985.66;5087399;28;20440;-77
2021/08/13 04:05:38;;;;;;;;;;;;;;;-142.75;71.23;76991.56;5087172;28;19923;-78
2021/08/13 04:08:04;;;;;;;;;;;;;;;-142.75;71.26;76979.75;5079777;28;19916;-78
2021/08/13 04:10:29;;;;;;;;;;;;;;;-142.75;71.01;76999.44;5079912;28;19924;-78
2021/08/13 04:12:54;;;;;;;;;;;;;;;-142.75;70.95;76997.47;5076093;28;20503;-78
2021/08/13 04:15:19;;;;;;;;;;;;;;;-142.75;70.84;76997.47;5087096;28;20289;-78
2021/08/13 04:17:45;;;;;;;;;;;;;;;-142.75;70.65;76995.50;5087776;28;20326;-79
2021/08/13 04:20:10;;;;;;;;;;;;;;;-142.75;70.86;77015.19;5079784;28;20007;-78
2021/08/13 04:22:35;;;;;;;;;;;;;;;-142.75;70.93;76997.47;5079397;28;19926;-78
2021/08/13 04:25:01;;;;;;;;;;;;;;;-142.75;70.85;77003.38;5074719;28;19917;-77
2021/08/13 04:27:26;;;;;;;;;;;;;;;-142.75;71.03;77032.91;5077872;28;20360;-78
2021/08/13 04:29:51;;;;;;;;;;;;;;;-142.75;71.00;77030.94;5085845;28;20533;-77
2021/08/13 04:32:17;;;;;;;;;;;;;;;-142.75;70.89;77036.84;5083680;28;20468;-78
2021/08/13 04:34:42;;;;;;;;;;;;;;;-142.75;70.89;77034.88;5076901;28;19916;-77
2021/08/13 04:37:07;;;;;;;;;;;;;;;-142.75;71.13;77019.13;5088277;28;19965;-77
2021/08/13 04:39:32;;;;;;;;;;;;;;;-142.75;71.24;77046.69;5083704;28;20390;-78
2021/08/13 04:41:57;;;;;;;;;;;;;;;-142.75;71.18;77017.16;5077722;28;19920;-79
2021/08/13 04:44:23;;;;;;;;;;;;;;;-142.75;71.28;77027.00;5080677;28;19920;-77
2021/08/13 04:46:48;;;;;;;;;;;;;;;-142.75;71.41;77025.03;5083078;28;19941;-78
2021/08/13 04:49:15;;;;;;;;;;;;;;;-142.75;71.51;77015.19;5080963;28;20298;-78
2021/08/13 04:51:40;;;;;;;;;;;;;;;-142.75;71.63;77015.19;5082245;28;19922;-78
2021/08/13 04:54:05;;;;;;;;;;;;;;;-142.75;71.56;77011.25;5080197;28;20007;-78
2021/08/13 04:56:30;;;;;;;;;;;;;;;-142.75;71.56;77013.22;5082019;28;19921;-78
2021/08/13 04:58:55;;;;;;;;;;;;;;;-142.75;71.51;76995.50;5085577;28;19923;-78
2021/08/13 05:01:21;;;;;;;;;;;;;;;-142.75;71.35;76975.81;5088946;28;20010;-77
2021/08/13 05:03:46;;;;;;;;;;;;;;;-142.75;71.40;76973.84;5077646;28;19927;-78
2021/08/13 05:06:11;;;;;;;;;;;;;;;-142.75;71.15;76971.88;5073121;28;20436;-78
2021/08/13 05:08:38;;;;;;;;;;;;;;;-142.75;70.89;76948.25;5076307;28;19963;-77
2021/08/13 05:11:03;;;;;;;;;;;;;;;-142.75;70.76;76942.34;5078043;28;19916;-78
2021/08/13 05:13:29;;;;;;;;;;;;;;;-142.75;70.95;76938.41;5086478;28;19970;-78
2021/08/13 05:15:54;;;;;;;;;;;;;;;-142.75;70.74;76924.63;5103463;22;19978;-77
2021/08/13 05:18:19;;;;;;;;;;;;;;;-142.75;70.37;76914.78;5076817;28;20309;-76
2021/08/13 05:20:44;;;;;;;;;;;;;;;-142.75;69.93;76901.00;5085331;28;20297;-75
2021/08/13 05:23:10;;;;;;;;;;;;;;;-142.75;69.83;76901.00;5082099;28;19920;-75
2021/08/13 05:25:35;;;;;;;;;;;;;;;-142.75;69.42;76887.22;5082061;28;19917;-77
2021/08/13 05:28:00;;;;;;;;;;;;;;;-142.75;69.19;76873.44;5081414;28;19939;-76
2021/08/13 05:30:25;;;;;;;;;;;;;;;-142.75;69.13;76885.25;5080961;28;19923;-78
2021/08/13 05:32:52;;;;;;;;;;;;;;;-142.75;68.99;76885.25;5075477;28;19917;-77
2021/08/13 05:35:17;;;;;;;;;;;;;;;-142.75;68.85;76887.22;5080850;28;20324;-76
2021/08/13 05:37:42;;;;;;;;;;;;;;;-142.75;68.74;76893.13;5083602;28;19931;-76
2021/08/13 05:40:08;;;;;;;;;;;;;;;-142.75;68.67;76897.06;5090446;28;20006;-75
2021/08/13 05:42:33;;;;;;;;;;;;;;;-142.75;68.22;76873.44;5078202;28;20381;-76
2021/08/13 05:44:58;;;;;;;;;;;;;;;-142.75;68.30;76875.41;5089665;28;20472;-76
2021/08/13 05:47:24;;;;;;;;;;;;;;;-142.75;68.24;76839.97;5079268;28;19916;-75
2021/08/13 05:49:49;;;;;;;;;;;;;;;-142.75;68.43;76873.44;5074783;28;20029;-76
2021/08/13 05:52:14;;;;;;;;;;;;;;;-142.75;68.20;76849.81;5082157;28;19923;-75
2021/08/13 05:54:39;;;;;;;;;;;;;;;-142.75;68.01;76836.03;5083171;28;20011;-76
2021/08/13 05:57:04;;;;;;;;;;;;;;;-142.75;67.96;76853.75;5080620;28;20336;-76
2021/08/13 05:59:30;;;;;;;;;;;;;;;-142.75;67.84;76845.88;5080589;28;19916;-76
2021/08/13 06:01:55;;;;;;;;;;;;;;;-142.75;67.63;76857.69;5079980;28;19923;-77
2021/08/13 06:04:20;;;;;;;;;;;;;;;-142.75;67.78;76863.59;5073732;28;20381;-75
2021/08/13 06:06:45;;;;;;;;;;;;;;;-142.75;68.09;76853.75;5087641;28;19916;-76
2021/08/13 06:09:11;;;;;;;;;;;;;;;-142.75;67.82;76845.88;5079515;28;19916;-75
2021/08/13 06:11:36;;;;;;;;;;;;;;;-142.75;67.63;76830.13;5081818;28;20382;-75
2021/08/13 06:14:01;;;;;;;;;;;;;;;-142.75;67.38;76812.41;5082366;28;21497;-76
2021/08/13 06:16:26;;;;;;;;;;;;;;;-142.75;67.06;76804.53;5080427;28;19916;-76
2021/08/13 06:18:51;;;;;;;;;;;;;;;-142.75;66.82;76790.78;5081681;28;20292;-77
2021/08/13 06:21:16;;;;;;;;;;;;;;;-142.75;67.07;76804.53;5078420;28;19920;-76
2021/08/13 06:23:42;;;;;;;;;;;;;;;-142.75;66.89;76806.50;5087780;28;19959;-75
2021/08/13 06:26:08;;;;;;;;;;;;;;;-142.75;66.48;76763.22;5089105;28;20453;-75
2021/08/13 06:28:33;;;;;;;;;;;;;;;-142.75;66.06;76757.31;5084223;28;19931;-77
2021/08/13 06:30:58;;;;;;;;;;;;;;;-142.75;65.80;76733.69;5083238;28;20015;-76
2021/08/13 06:33:23;;;;;;;;;;;;;;;-142.75;65.37;76731.72;5079686;28;19916;-77
2021/08/13 06:35:48;;;;;;;;;;;;;;;-142.75;65.18;76721.88;5088164;28;19916;-75
2021/08/13 06:38:14;;;;;;;;;;;;;;;-142.75;65.01;76696.28;5085780;28;20289;-77
2021/08/13 06:40:39;;;;;;;;;;;;;;;-142.75;64.90;76682.50;5081918;28;19927;-76
2021/08/13 06:43:04;;;;;;;;;;;;;;;-142.75;64.25;76654.94;5085891;28;19983;-76
2021/08/13 06:45:29;;;;;;;;;;;;;;;-142.75;63.94;76629.34;5078308;28;20368;-75
2021/08/13 06:47:54;;;;;;;;;;;;;;;-142.75;62.74;76593.91;5084003;28;19962;-76
2021/08/13 06:50:20;;;;;;;;;;;;;;;-142.75;62.30;76576.19;5072457;28;19932;-75
2021/08/13 06:52:45;;;;;;;;;;;;;;;-142.75;61.53;76588.00;5085608;28;20381;-76
2021/08/13 06:55:11;;;;;;;;;;;;;;;-142.75;61.73;76572.25;5082746;28;20007;-76
2021/08/13 06:57:36;;;;;;;;;;;;;;;-142.75;61.18;76546.66;5075130;28;20297;-76
2021/08/13 07:00:05;;;;;;;;;;;;;;;-142.75;60.70;76507.31;5082773;28;19923;-76
2021/08/13 07:02:30;;;;;;;;;;;;;;;-142.75;59.50;76434.47;5078678;28;19962;-76
2021/08/13 07:04:56;;;;;;;;;;;;;;;-142.75;58.64;76357.69;5078435;28;19963;-76
2021/08/13 07:07:21;;;;;;;;;;;;;;;-142.75;57.01;76294.72;5079295;28;19922;-76
2021/08/13 07:09:46;;;;;;;;;;;;;;;-142.75;55.11;76271.09;5081937;28;19923;-76
2021/08/13 07:12:12;;;;;;;;;;;;;;;-142.75;52.49;76288.81;5075913;28;19916;-76
2021/08/13 07:14:38;;;;;;;;;;;;;;;-142.75;52.67;76334.09;5089176;28;20041;-76
2021/08/13 07:17:03;;;;;;;;;;;;;;;-142.75;52.31;76353.78;5072447;28;19916;-75
2021/08/13 07:19:28;;;;;;;;;;;;;;;-142.75;52.12;76310.47;5082291;28;19962;-76
2021/08/13 07:21:53;;;;;;;;;;;;;;;-142.75;51.18;76267.16;5079238;28;19917;-75
2021/08/13 07:24:21;;;;;;;;;;;;;;;-142.75;50.01;76249.44;5085750;28;20385;-77
2021/08/13 07:26:47;;;;;;;;;;;;;;;-142.75;49.54;76190.41;5089697;28;19923;-76
2021/08/13 07:29:12;;;;;;;;;;;;;;;-142.75;48.03;76109.69;5076401;28;19916;-77
2021/08/13 07:31:37;;;;;;;;;;;;;;;-142.75;47.27;76019.16;5077034;28;20401;-76
2021/08/13 07:34:02;;;;;;;;;;;;;;;-142.75;45.66;75946.34;5081870;28;19916;-75
2021/08/13 07:36:27;;;;;;;;;;;;;;;-142.75;45.84;75952.25;5075066;28;19969;-77
2021/08/13 07:38:52;;;;;;;;;;;;;;;-142.75;44.15;75952.25;5078870;28;20360;-78
2021/08/13 07:41:18;;;;;;;;;;;;;;;-142.75;43.84;75977.81;5081108;28;19923;-76
2021/08/13 07:43:43;;;;;;;;;;;;;;;-142.75;43.86;76019.16;5074146;28;19925;-76
2021/08/13 07:46:10;;;;;;;;;;;;;;;-142.75;44.89;75964.03;5078875;28;19939;-76
2021/08/13 07:48:35;;;;;;;;;;;;;;;-142.75;42.96;75940.44;5086345;28;19951;-76
2021/08/13 07:51:00;;;;;;;;;;;;;;;-142.75;43.32;75958.16;5077390;28;19962;-76
2021/08/13 07:53:25;;;;;;;;;;;;;;;-142.75;43.53;75967.97;5076148;28;19961;-75
2021/08/13 07:55:51;;;;;;;;;;;;;;;-142.75;42.97;76019.16;5086240;28;19961;-77
2021/08/13 07:58:16;;;;;;;;;;;;;;;-142.75;44.17;76070.34;5084036;28;19920;-76
2021/08/13 08:00:41;;;;;;;;;;;;;;;-142.75;44.65;76070.34;5088055;28;19931;-77
2021/08/13 08:03:07;;;;;;;;;;;;;;;-142.75;44.45;76015.22;5088276;28;19920;-77
2021/08/13 08:05:33;;;;;;;;;;;;;;;-142.75;43.45;75928.63;5075458;28;19916;-77
2021/08/13 08:07:58;;;;;;;;;;;;;;;-142.75;41.54;75889.25;5072688;28;20393;-77
2021/08/13 08:10:23;;;;;;;;;;;;;;;-142.75;42.20;75869.56;5074902;28;19982;-76
2021/08/13 08:12:48;;;;;;;;;;;;;;;-142.75;41.33;75842.03;5068415;28;19920;-77
2021/08/13 08:15:13;;;;;;;;;;;;;;;-142.75;41.70;75779.03;5074139;28;19923;-76
2021/08/13 08:17:39;;;;;;;;;;;;;;;-142.75;40.05;75786.91;5087109;28;20293;-76
2021/08/13 08:20:04;;;;;;;;;;;;;;;-142.75;40.29;75855.81;5070908;28;20401;-76
2021/08/13 08:22:29;;;;;;;;;;;;;;;-142.75;40.80;75820.38;5083564;28;19947;-77
2021/08/13 08:24:55;;;;;;;;;;;;;;;-142.75;39.97;75725.91;5072283;28;19916;-77
2021/08/13 08:27:20;;;;;;;;;;;;;;;-142.75;39.27;75716.06;5069450;28;19959;-76
2021/08/13 08:29:45;;;;;;;;;;;;;;;-142.75;39.10;75714.09;5070595;28;19970;-75
2021/08/13 08:32:10;;;;;;;;;;;;;;;-142.75;39.30;75672.78;5070887;28;19982;-76
2021/08/13 08:34:35;;;;;;;;;;;;;;;-142.75;38.64;75621.59;5089182;28;19919;-77
2021/08/13 08:37:01;;;;;;;;;;;;;;;-142.75;38.43;75570.44;5087089;28;19916;-76
2021/08/13 08:39:27;;;;;;;;;;;;;;;-142.75;37.90;75466.13;5086775;28;20021;-76
2021/08/13 08:41:52;;;;;;;;;;;;;;;-142.75;36.77;75464.16;5090820;28;19963;-76
2021/08/13 08:44:17;;;;;;;;;;;;;;;-142.75;35.90;75452.34;5072608;28;19935;-76
2021/08/13 08:46:44;;;;;;;;;;;;;;;-142.75;36.49;75432.69;5072100;28;19940;-74
2021/08/13 08:49:10;;;;;;;;;;;;;;;-142.75;36.96;75436.59;5078132;28;19920;-76
2021/08/13 08:51:37;;;;;;;;;;;;;;;-142.75;36.19;75489.75;5093497;28;19961;-75
2021/08/13 08:54:03;;;;;;;;;;;;;;;-142.75;36.56;75552.72;5093898;28;19916;-76
2021/08/13 08:56:29;;;;;;;;;;;;;;;-142.75;37.02;75609.78;5093420;28;19916;-75
2021/08/13 08:58:55;;;;;;;;;;;;;;;-142.75;37.92;75651.13;5075034;28;20254;-76
2021/08/13 09:01:21;;;;;;;;;;;;;;;-142.75;37.55;75716.06;5073377;28;19917;-75
2021/08/13 09:03:47;;;;;;;;;;;;;;;-142.75;39.41;75830.22;5073210;28;19921;-76
2021/08/13 09:06:14;;;;;;;;;;;;;;;-142.75;39.95;75877.44;5073093;28;20393;-76
2021/08/13 09:08:39;;;;;;;;;;;;;;;-142.75;40.76;75967.97;5073913;28;19994;-76
2021/08/13 09:11:06;;;;;;;;;;;;;;;-142.75;40.55;76011.28;5073041;28;20417;-77
2021/08/13 09:13:34;;;;;;;;;;;;;;;-142.75;40.83;75932.56;5071942;28;20324;-76
2021/08/13 09:16:09;;;;;;;;;;;;;;;-142.75;39.65;75875.47;5071801;28;20019;-76
2021/08/13 09:18:34;;;;;;;;;;;;;;;-142.75;39.91;75861.69;5072924;28;20511;-76
2021/08/13 09:21:00;;;;;;;;;;;;;;;-142.75;39.80;75796.75;5072904;28;19927;-76
2021/08/13 09:23:34;;;;;;;;;;;;;;;-142.75;37.60;75712.13;5073237;28;19977;-76
2021/08/13 09:26:01;;;;;;;;;;;;;;;-142.75;36.91;75660.97;5073990;28;20382;-76
2021/08/13 09:28:43;;;;;;;;;;;;;;;-142.75;35.17;75550.75;5073843;28;20378;-76
2021/08/13 09:31:11;;;;;;;;;;;;;;;-142.75;34.55;75507.47;5071834;28;19916;-76
2021/08/13 09:33:37;;;;;;;;;;;;;;;-142.75;33.49;75448.41;5072119;28;19916;-77
2021/08/13 09:36:02;;;;;;;;;;;;;;;-142.75;34.52;75475.97;5077804;28;19922;-76
2021/08/13 09:38:28;;;;;;;;;;;;;;;-142.75;34.71;75442.50;5093138;28;19916;-76
2021/08/13 09:41:04;;;;;;;;;;;;;;;-142.75;34.28;75420.88;5076947;28;19916;-76
2021/08/13 09:43:29;;;;;;;;;;;;;;;-142.75;32.88;75426.78;5086634;28;20408;-76
2021/08/13 09:46:03;;;;;;;;;;;;;;;-142.75;33.44;75464.16;5086294;28;19916;-75
2021/08/13 09:48:28;;;;;;;;;;;;;;;-142.75;33.57;75538.94;5091759;28;19916;-76
2021/08/13 09:50:54;;;;;;;;;;;;;;;-142.75;33.43;75629.47;5075749;28;19917;-76
2021/08/13 09:53:19;;;;;;;;;;;;;;;-142.75;33.63;75625.53;5071479;28;20007;-76
2021/08/13 09:55:44;;;;;;;;;;;;;;;-142.75;33.83;75623.56;5081039;28;20002;-76
2021/08/13 09:58:11;;;;;;;;;;;;;;;-142.75;32.50;75515.31;5092801;28;19916;-74
2021/08/13 10:00:45;;;;;;;;;;;;;;;-142.75;31.95;75418.91;5078727;28;19952;-76
2021/08/13 10:03:11;;;;;;;;;;;;;;;-142.75;31.65;75424.81;5075972;28;19928;-76
2021/08/13 10:05:36;;;;;;;;;;;;;;;-142.75;30.65;75405.13;5071071;28;19920;-76
2021/08/13 10:08:03;;;;;;;;;;;;;;;-142.75;31.20;75373.63;5072828;28;20376;-76
2021/08/13 10:10:32;;;;;;;;;;;;;;;-142.75;31.44;75255.56;5085845;28;20004;-76
2021/08/13 10:12:58;;;;;;;;;;;;;;;-142.75;31.30;75208.34;5091051;28;20282;-75
2021/08/13 10:15:37;;;;;;;;;;;;;;;-142.75;30.04;75121.75;5072437;28;20400;-76
2021/08/13 10:18:09;;;;;;;;;;;;;;;-142.75;29.11;75161.13;5070878;28;20585;-77
2021/08/13 10:20:38;;;;;;;;;;;;;;;-142.75;29.43;75212.28;5071752;28;20329;-76
2021/08/13 10:23:03;;;;;;;;;;;;;;;-142.75;30.64;75379.53;5069882;28;19924;-76
2021/08/13 10:25:28;;;;;;;;;;;;;;;-142.75;30.75;75414.97;5084277;28;19919;-77
2021/08/13 10:27:54;;;;;;;;;;;;;;;-142.75;31.17;75454.31;5091878;28;19923;-75
2021/08/13 10:30:20;;;;;;;;;;;;;;;-142.75;31.70;75481.88;5090307;28;19921;-76
2021/08/13 10:32:46;;;;;;;;;;;;;;;-142.75;31.18;75523.19;5083201;28;19988;-75
2021/08/13 10:35:11;;;;;;;;;;;;;;;-142.75;32.27;75525.16;5090381;28;19916;-77
2021/08/13 10:37:37;;;;;;;;;;;;;;;-142.75;33.04;75546.81;5092303;28;19916;-75
2021/08/13 10:40:03;;;;;;;;;;;;;;;-142.75;32.46;75568.47;5081341;28;19998;-76
2021/08/13 10:42:28;;;;;;;;;;;;;;;-142.75;32.37;75590.13;5074637;28;19993;-75
2021/08/13 10:45:04;;;;;;;;;;;;;;;-142.75;32.75;75637.34;5082230;28;19916;-77
2021/08/13 10:47:32;;;;;;;;;;;;;;;-142.75;33.43;75682.59;5088111;28;19924;-77
2021/08/13 10:49:58;;;;;;;;;;;;;;;-142.75;34.42;75696.38;5082566;28;20011;-76
2021/08/13 10:52:32;;;;;;;;;;;;;;;-142.75;34.49;75696.38;5077685;28;19966;-77
2021/08/13 10:54:57;;;;;;;;;;;;;;;-142.75;33.82;75653.09;5071056;28;19916;-76
2021/08/13 10:57:41;;;;;;;;;;;;;;;-142.75;34.33;75643.25;5086833;28;19924;-76
2021/08/13 11:00:07;;;;;;;;;;;;;;;-142.75;33.60;75590.13;5091266;28;19969;-77
2021/08/13 11:02:32;;;;;;;;;;;;;;;-142.75;32.98;75629.47;5091170;28;19920;-75
2021/08/13 11:04:57;;;;;;;;;;;;;;;-142.75;33.05;75672.78;5080913;28;19916;-77
2021/08/13 11:07:41;;;;;;;;;;;;;;;-142.75;34.49;75765.25;5070599;28;19920;-75
2021/08/13 11:10:26;;;;;;;;;;;;;;;-142.75;34.96;75857.78;5070671;28;19916;-76
2021/08/13 11:13:10;;;;;;;;;;;;;;;-142.75;35.68;75938.47;5069678;28;19963;-77
2021/08/13 11:15:36;;;;;;;;;;;;;;;-142.75;35.75;75960.13;5070902;28;20049;-75
2021/08/13 11:18:01;;;;;;;;;;;;;;;-142.75;36.83;75964.03;5070048;28;19917;-76
2021/08/13 11:20:40;;;;;;;;;;;;;;;-142.75;36.40;75979.78;5070960;28;19917;-76
2021/08/13 11:23:07;;;;;;;;;;;;;;;-142.75;36.78;76032.94;5086160;28;20336;-77
2021/08/13 11:25:44;;;;;;;;;;;;;;;-142.75;36.52;76062.47;5091116;28;19951;-77
2021/08/13 11:28:20;;;;;;;;;;;;;;;-142.75;37.34;76093.94;5090093;28;19966;-76
2021/08/13 11:30:45;;;;;;;;;;;;;;;-142.75;37.74;76074.25;5088966;28;20285;-77
2021/08/13 11:33:26;;;;;;;;;;;;;;;-142.75;37.93;76074.25;5075600;28;19925;-77
2021/08/13 11:35:52;;;;;;;;;;;;;;;-142.75;37.80;76042.78;5086064;28;19955;-77
2021/08/13 11:38:37;;;;;;;;;;;;;;;-142.75;36.74;75975.84;5090501;28;19958;-75
2021/08/13 11:41:22;;;;;;;;;;;;;;;-142.75;36.86;75987.66;5085248;28;20084;-77
2021/08/13 11:43:48;;;;;;;;;;;;;;;-142.75;37.26;75973.88;5080484;28;20294;-77
2021/08/13 11:46:22;;;;;;;;;;;;;;;-142.75;36.32;75948.31;5074050;28;19938;-76
2021/08/13 11:48:47;;;;;;;;;;;;;;;-142.75;36.15;75995.53;5090142;28;19923;-76
2021/08/13 11:51:13;;;;;;;;;;;;;;;-142.75;37.97;76003.41;5089512;28;19916;-78
2021/08/13 11:53:38;;;;;;;;;;;;;;;-142.75;38.17;76017.19;5085955;28;20022;-77
2021/08/13 11:56:04;;;;;;;;;;;;;;;-142.75;38.12;75987.66;5087355;28;19916;-76
2021/08/13 11:58:29;;;;;;;;;;;;;;;-142.75;37.96;75969.94;5087513;28;19920;-76
2021/08/13 12:01:03;;;;;;;;;;;;;;;-142.75;37.72;75934.53;5088247;28;19916;-77
2021/08/13 12:03:28;;;;;;;;;;;;;;;-142.75;37.96;75867.59;5089211;28;19924;-76
2021/08/13 12:05:54;;;;;;;;;;;;;;;-142.75;37.00;75934.53;5087097;28;19949;-76
2021/08/13 12:08:19;;;;;;;;;;;;;;;-142.75;36.40;75905.00;5087300;28;19946;-76
2021/08/13 12:10:45;;;;;;;;;;;;;;;-142.75;36.67;75912.88;5071454;28;20385;-77
2021/08/13 12:13:11;;;;;;;;;;;;;;;-142.75;35.87;75952.25;5079001;28;20315;-75
2021/08/13 12:15:37;;;;;;;;;;;;;;;-142.75;36.09;75983.72;5078035;28;20014;-77
2021/08/13 12:18:03;;;;;;;;;;;;;;;-142.75;36.35;76015.22;5082212;28;19915;-78
2021/08/13 12:20:29;;;;;;;;;;;;;;;-142.75;36.56;76003.41;5078753;28;19924;-77
2021/08/13 12:22:58;;;;;;;;;;;;;;;-142.75;36.96;76003.41;5078518;28;19960;-76
2021/08/13 12:25:29;;;;;;;;;;;;;;;-142.75;35.93;75991.59;5075519;28;19924;-76